Time;durP1;ratioP1;P1;durP2;ratioP2;P2;SDS_P1;SDS_P2;PMS_P1;PMS_P2;Temp;Humidity;BMP_temperature;BMP_pressure;BME280_temperature;BME280_humidity;BME280_pressure;Samples;Min_cycle;Max_cycle;Signal;HPM_P1;HPM_P2
2021/01/17 00:00:39;;;;;;;33.73;21.57;;;1.10;99.90;;;4.92;89.52;101524.38;1719861;73;24878;-77
2021/01/17 00:02:56;;;;;;;26.92;16.86;;;1.10;99.90;;;5.13;89.26;101513.70;1720159;73;24503;-76
2021/01/17 00:05:17;;;;;;;32.28;21.34;;;1.00;99.90;;;4.73;89.69;101518.83;1715973;73;25004;-78
2021/01/17 00:07:36;;;;;;;31.56;21.97;;;1.00;99.90;;;5.11;89.69;101516.62;1717227;73;25041;-78
2021/01/17 00:09:57;;;;;;;32.35;18.75;;;1.00;99.90;;;5.14;88.98;101513.77;1716194;73;24512;-77
2021/01/17 00:12:14;;;;;;;30.01;19.71;;;1.00;99.90;;;4.94;88.79;101517.59;1715362;73;24457;-77
2021/01/17 00:14:32;;;;;;;31.76;21.00;;;1.00;99.90;;;4.95;89.12;101516.38;1715842;75;24575;-78
2021/01/17 00:16:49;;;;;;;32.88;20.41;;;1.00;99.90;;;4.85;89.99;101508.17;1722526;73;24487;-77
2021/01/17 00:19:06;;;;;;;33.09;20.91;;;1.00;99.90;;;4.96;89.44;101510.81;1720512;73;24983;-78
2021/01/17 00:21:24;;;;;;;28.00;16.86;;;1.00;99.90;;;5.01;89.31;101502.87;1722741;73;24464;-78
2021/01/17 00:23:42;;;;;;;30.04;20.12;;;0.90;99.90;;;4.97;88.91;101505.72;1722110;73;25248;-79
2021/01/17 00:26:00;;;;;;;28.61;18.73;;;0.90;99.90;;;5.08;88.78;101504.48;1717160;73;24808;-78
2021/01/17 00:28:18;;;;;;;34.03;21.61;;;0.90;99.90;;;5.01;88.78;101507.59;1726878;73;24903;-78
2021/01/17 00:30:36;;;;;;;32.40;20.63;;;1.00;99.90;;;5.23;88.47;101499.95;1726063;73;24553;-79
2021/01/17 00:32:54;;;;;;;33.84;21.07;;;1.00;99.90;;;5.13;88.13;101500.80;1715622;73;24521;-77
2021/01/17 00:35:12;;;;;;;33.91;22.10;;;1.00;99.90;;;5.07;88.11;101501.84;1719657;73;24575;-78
2021/01/17 00:37:32;;;;;;;23.30;13.23;;;1.00;99.90;;;5.21;88.18;101498.14;1715558;74;24488;-77
2021/01/17 00:39:50;;;;;;;29.72;17.90;;;0.90;99.90;;;4.77;88.62;101506.95;1716566;73;24458;-76
2021/01/17 00:42:11;;;;;;;33.16;18.86;;;0.90;99.90;;;4.83;89.21;101507.22;1725891;73;25131;-77
2021/01/17 00:44:28;;;;;;;35.45;21.03;;;0.90;99.90;;;4.81;89.44;101499.81;1723007;73;24423;-77
2021/01/17 00:46:44;;;;;;;27.62;18.34;;;0.90;99.90;;;4.98;89.21;101491.13;1714113;73;24427;-77
2021/01/17 00:49:00;;;;;;;25.73;16.28;;;0.90;99.90;;;4.94;89.22;101498.25;1705081;74;25236;-77
2021/01/17 00:51:22;;;;;;;30.69;18.86;;;0.90;99.90;;;4.89;88.99;101495.47;1704423;74;24476;-77
2021/01/17 00:53:40;;;;;;;31.63;20.19;;;0.90;99.90;;;4.97;89.04;101493.22;1708963;74;24591;-78
2021/01/17 00:56:02;;;;;;;35.33;22.82;;;0.90;99.90;;;5.12;88.96;101489.58;1716337;74;24549;-77
2021/01/17 00:58:19;;;;;;;34.08;19.60;;;1.00;99.90;;;5.10;88.75;101485.19;1712210;74;24536;-78
2021/01/17 01:00:36;;;;;;;31.62;18.55;;;0.90;99.90;;;4.84;89.13;101486.64;1714789;74;25015;-78
2021/01/17 01:02:56;;;;;;;29.13;17.49;;;1.00;99.90;;;4.94;89.40;101489.22;1710700;74;24415;-77
2021/01/17 01:05:14;;;;;;;31.24;20.85;;;0.90;99.90;;;5.08;89.21;101487.70;1703840;75;24586;-78
2021/01/17 01:07:30;;;;;;;29.56;18.91;;;1.00;99.90;;;5.05;89.03;101486.28;1704007;74;24477;-77
2021/01/17 01:09:48;;;;;;;32.84;21.12;;;1.00;99.90;;;5.08;88.77;101485.52;1704635;74;24540;-77
2021/01/17 01:12:05;;;;;;;35.18;23.11;;;1.00;99.90;;;4.98;89.10;101482.09;1714860;74;24519;-77
2021/01/17 01:14:21;;;;;;;35.85;22.73;;;1.00;99.90;;;5.09;89.31;101488.16;1706917;74;24572;-77
2021/01/17 01:16:39;;;;;;;33.21;20.07;;;1.00;99.90;;;5.32;89.06;101483.58;1712236;74;24606;-79
2021/01/17 01:18:58;;;;;;;32.82;21.76;;;1.00;99.90;;;5.10;87.91;101479.62;1704194;74;24562;-78
2021/01/17 01:21:14;;;;;;;33.60;22.12;;;1.00;99.90;;;5.25;88.12;101483.27;1707384;74;24971;-78
2021/01/17 01:23:32;;;;;;;35.34;21.39;;;1.00;99.90;;;5.40;88.23;101476.14;1713278;74;24980;-77
2021/01/17 01:25:54;;;;;;;35.79;22.89;;;1.00;99.90;;;5.22;88.09;101481.81;1712474;74;24889;-76
2021/01/17 01:28:11;;;;;;;32.72;22.36;;;1.00;99.90;;;5.38;88.13;101479.06;1705279;74;24520;-78
2021/01/17 01:30:27;;;;;;;37.60;22.64;;;1.00;99.90;;;5.54;88.10;101478.87;1706508;74;24476;-76
2021/01/17 01:32:45;;;;;;;25.62;14.58;;;1.10;99.90;;;5.31;87.34;101483.08;1714679;74;24500;-78
2021/01/17 01:35:01;;;;;;;35.13;22.32;;;1.00;99.90;;;5.12;87.76;101484.85;1704114;74;24523;-77
2021/01/17 01:37:19;;;;;;;36.38;23.09;;;1.00;99.90;;;5.20;88.09;101482.19;1705746;74;24505;-76
2021/01/17 01:39:38;;;;;;;37.06;22.90;;;1.00;99.90;;;5.38;87.99;101474.78;1709450;74;24519;-76
2021/01/17 01:41:54;;;;;;;34.70;21.34;;;1.00;99.90;;;5.29;87.71;101481.27;1703801;74;24913;-78
2021/01/17 01:44:13;;;;;;;34.85;20.71;;;1.00;99.90;;;5.38;87.61;101482.53;1708175;74;24470;-77
2021/01/17 01:46:32;;;;;;;32.14;20.35;;;1.10;99.90;;;5.32;87.25;101479.70;1711981;74;24519;-76
2021/01/17 01:48:49;;;;;;;38.35;22.74;;;1.00;99.90;;;5.24;87.73;101475.03;1717146;73;24492;-77
2021/01/17 01:51:06;;;;;;;39.12;23.49;;;1.10;99.90;;;5.30;88.03;101477.45;1715026;73;24507;-77
2021/01/17 01:53:23;;;;;;;39.68;22.17;;;1.10;99.90;;;5.36;87.79;101470.39;1715403;73;24498;-77
2021/01/17 01:55:46;;;;;;;38.27;23.60;;;1.10;99.90;;;5.25;87.60;101476.81;1718807;73;24920;-75
2021/01/17 01:58:08;;;;;;;35.50;20.96;;;1.10;99.90;;;5.48;87.84;101476.94;1721226;73;24515;-74
2021/01/17 02:00:26;;;;;;;36.90;18.95;;;1.10;99.90;;;5.34;87.12;101473.31;1717839;73;24492;-75
2021/01/17 02:02:55;;;;;;;40.41;21.86;;;1.00;99.90;;;5.20;87.37;101471.86;1719986;73;24526;-74
2021/01/17 02:05:15;;;;;;;37.40;22.42;;;1.10;99.90;;;5.34;87.68;101468.14;1719823;73;24482;-76
2021/01/17 02:08:16;;;;;;;41.51;22.69;;;1.00;99.90;;;5.36;87.54;101470.39;1713377;73;24709;-75
2021/01/17 02:10:33;;;;;;;33.00;17.42;;;1.10;99.90;;;5.47;87.26;101467.84;1723428;73;24992;-77
2021/01/17 02:12:55;;;;;;;27.65;14.53;;;1.00;99.90;;;5.29;86.96;101461.51;1713183;73;24473;-76
2021/01/17 02:15:20;;;;;;;32.33;18.41;;;1.00;99.90;;;4.96;88.43;101460.50;1720626;73;24598;-77
2021/01/17 02:17:39;;;;;;;40.02;23.85;;;1.00;99.90;;;5.10;88.72;101457.69;1722994;73;25013;-75
2021/01/17 02:20:11;;;;;;;40.45;24.70;;;1.00;99.90;;;5.30;88.87;101454.63;1712671;73;24635;-75
2021/01/17 02:22:31;;;;;;;46.09;23.77;;;1.00;99.90;;;5.29;89.25;101452.88;1723766;73;24535;-78
2021/01/17 02:24:54;;;;;;;34.59;18.95;;;1.00;99.90;;;5.45;88.90;101447.12;1725155;73;25059;-78
2021/01/17 02:27:12;;;;;;;40.97;24.37;;;1.00;99.90;;;5.22;87.98;101446.97;1713640;73;24483;-77
2021/01/17 02:29:30;;;;;;;39.26;22.56;;;1.00;99.90;;;5.27;88.34;101449.34;1712323;74;25076;-75
2021/01/17 02:31:48;;;;;;;40.14;20.60;;;1.00;99.90;;;5.04;88.93;101449.69;1712411;74;24520;-75
2021/01/17 02:34:06;;;;;;;40.96;22.19;;;1.00;99.90;;;5.07;88.76;101443.37;1712700;73;25116;-76
2021/01/17 02:36:35;;;;;;;41.15;22.52;;;1.00;99.90;;;5.15;88.62;101447.55;1712623;73;25376;-76
2021/01/17 02:38:57;;;;;;;38.70;20.61;;;1.00;99.90;;;5.19;88.72;101450.31;1722687;73;24581;-76
2021/01/17 02:41:19;;;;;;;39.80;23.04;;;1.00;99.90;;;5.13;88.63;101450.47;1713441;73;25052;-75
2021/01/17 02:43:36;;;;;;;40.85;22.68;;;1.00;99.90;;;5.14;88.83;101447.95;1714911;73;24447;-75
2021/01/17 02:45:54;;;;;;;38.85;21.91;;;0.90;99.90;;;5.21;88.85;101440.95;1712366;73;24522;-76
2021/01/17 02:48:12;;;;;;;40.87;22.35;;;1.00;99.90;;;5.06;89.01;101447.17;1717289;73;24621;-76
2021/01/17 02:50:28;;;;;;;39.23;21.09;;;1.00;99.90;;;5.13;89.12;101448.78;1730173;73;24577;-75
2021/01/17 02:52:49;;;;;;;39.73;22.84;;;1.00;99.90;;;5.01;89.50;101449.97;1721982;73;24498;-76
2021/01/17 02:55:09;;;;;;;38.65;22.95;;;1.00;99.90;;;5.15;89.19;101450.13;1732880;73;24440;-77
2021/01/17 02:57:30;;;;;;;38.60;22.84;;;1.00;99.90;;;5.24;89.16;101445.34;1723150;73;24502;-76
2021/01/17 03:02:30;;;;;;;41.90;23.69;;;1.00;99.90;;;5.44;89.44;101441.46;1730699;72;25228;-77
2021/01/17 03:04:55;;;;;;;38.75;22.11;;;1.00;99.90;;;5.18;89.68;101434.38;1707941;75;25214;-76
2021/01/17 03:07:14;;;;;;;40.11;22.41;;;1.00;99.90;;;4.98;89.39;101433.06;1705789;75;24500;-77
2021/01/17 03:09:32;;;;;;;35.50;19.60;;;1.00;99.90;;;4.78;90.33;101433.50;1686394;75;25036;-78
2021/01/17 03:11:50;;;;;;;36.57;21.36;;;1.00;99.90;;;4.61;91.16;101432.80;1687166;75;24540;-75
2021/01/17 03:14:10;;;;;;;40.97;23.52;;;1.00;99.90;;;4.75;91.74;101428.22;1689039;75;24491;-76
2021/01/17 03:16:33;;;;;;;33.32;17.73;;;1.00;99.90;;;4.84;91.43;101428.59;1699232;75;24496;-76
2021/01/17 03:18:49;;;;;;;38.20;22.32;;;1.00;99.90;;;4.68;91.18;101421.45;1709176;75;24477;-75
2021/01/17 03:21:08;;;;;;;35.28;19.30;;;1.00;99.90;;;4.86;92.09;101424.39;1693116;75;24559;-76
2021/01/17 03:23:24;;;;;;;39.05;22.14;;;1.00;99.90;;;4.73;91.17;101428.55;1704672;75;24451;-76
2021/01/17 03:25:40;;;;;;;19.36;10.43;;;1.00;99.90;;;5.02;91.05;101431.97;1675539;75;25510;-76
2021/01/17 03:27:56;;;;;;;44.01;21.27;;;1.00;99.90;;;4.62;91.61;101436.23;1697333;75;25017;-76
2021/01/17 03:30:15;;;;;;;43.52;22.70;;;1.00;99.90;;;4.74;92.16;101441.94;1689894;75;24456;-77
2021/01/17 03:32:31;;;;;;;40.92;22.34;;;1.00;99.90;;;4.80;92.17;101440.91;1695052;75;24532;-73
2021/01/17 03:34:49;;;;;;;37.54;21.13;;;1.00;99.90;;;4.69;92.51;101435.70;1705961;75;24571;-76
2021/01/17 03:37:07;;;;;;;21.98;11.57;;;1.00;99.90;;;4.59;92.50;101443.84;1706628;75;24486;-77
2021/01/17 03:39:25;;;;;;;31.76;16.60;;;1.00;99.90;;;4.52;92.83;101446.55;1689097;75;24502;-77
2021/01/17 03:41:46;;;;;;;38.00;19.47;;;1.00;99.90;;;4.63;92.83;101444.03;1667464;76;24487;-77
2021/01/17 03:44:04;;;;;;;34.79;18.00;;;1.00;99.90;;;4.71;92.72;101437.05;1698836;75;25045;-77
2021/01/17 03:46:21;;;;;;;38.82;23.09;;;1.00;99.90;;;4.67;92.43;101434.73;1703347;75;24479;-77
2021/01/17 03:48:38;;;;;;;31.87;17.06;;;1.00;99.90;;;4.86;92.81;101430.84;1706481;75;24491;-77
2021/01/17 03:50:56;;;;;;;37.07;21.82;;;1.00;99.90;;;4.71;92.30;101432.75;1707160;75;24883;-78
2021/01/17 03:53:14;;;;;;;35.99;19.76;;;1.10;99.90;;;4.75;93.46;101426.03;1699942;75;24460;-77
2021/01/17 03:55:31;;;;;;;35.63;21.17;;;1.10;99.90;;;4.83;92.72;101425.55;1705433;75;24580;-76
2021/01/17 03:57:49;;;;;;;26.18;14.66;;;1.10;99.90;;;4.83;92.34;101427.24;1691704;75;24736;-79
2021/01/17 04:00:10;;;;;;;33.54;19.61;;;1.00;99.90;;;4.73;92.51;101427.26;1690239;75;24517;-78
2021/01/17 04:02:31;;;;;;;34.05;19.90;;;1.10;99.90;;;4.80;92.58;101428.41;1700594;74;24495;-78
2021/01/17 04:04:48;;;;;;;33.18;18.47;;;1.10;99.90;;;4.98;92.12;101436.94;1704347;74;25293;-77
2021/01/17 04:07:06;;;;;;;25.20;14.16;;;1.10;99.90;;;4.84;92.02;101430.31;1696343;74;24464;-77
2021/01/17 04:09:23;;;;;;;30.61;18.38;;;1.10;99.90;;;4.74;92.25;101434.59;1703432;74;24884;-77
2021/01/17 04:11:39;;;;;;;33.95;19.90;;;1.10;99.90;;;4.91;92.63;101432.32;1706373;74;24578;-76
2021/01/17 04:13:56;;;;;;;28.47;15.57;;;1.30;99.90;;;4.97;92.50;101433.86;1705351;74;24503;-76
2021/01/17 04:16:13;;;;;;;33.49;19.18;;;;;;;4.82;92.14;101426.35;1709029;74;24498;-76
2021/01/17 04:18:32;;;;;;;27.66;16.25;;;1.20;99.90;;;5.10;92.79;101433.56;1703285;74;24814;-77
2021/01/17 04:20:51;;;;;;;30.40;18.26;;;1.30;99.90;;;4.78;92.58;101423.58;1703733;74;24978;-75
2021/01/17 04:23:08;;;;;;;31.24;17.72;;;1.10;99.90;;;4.85;92.96;101421.35;1716293;74;24566;-75
2021/01/17 04:25:26;;;;;;;31.84;18.55;;;1.10;99.90;;;4.90;92.56;101424.98;1713879;74;24951;-74
2021/01/17 04:28:00;;;;;;;31.60;18.73;;;1.10;99.90;;;5.05;93.12;101417.00;1693714;74;24438;-75
2021/01/17 04:30:19;;;;;;;31.67;18.76;;;1.40;99.90;;;4.95;92.64;101421.33;1698411;74;24504;-77
2021/01/17 04:32:40;;;;;;;33.59;18.33;;;1.40;99.90;;;4.90;92.31;101426.70;1693761;74;25031;-75
2021/01/17 04:34:57;;;;;;;31.87;18.79;;;1.30;99.90;;;5.10;92.42;101425.42;1705389;74;24620;-77
2021/01/17 04:37:15;;;;;;;33.79;19.96;;;1.30;99.90;;;5.07;92.21;101424.41;1704533;74;25130;-75
2021/01/17 04:39:31;;;;;;;34.49;19.82;;;1.20;99.90;;;5.18;92.56;101427.02;1701497;74;24464;-74
2021/01/17 04:41:51;;;;;;;31.28;18.81;;;1.40;99.90;;;5.24;93.09;101432.03;1698460;74;24970;-75
2021/01/17 04:44:12;;;;;;;34.88;19.86;;;1.30;99.90;;;5.09;92.40;101427.94;1694634;74;25117;-76
2021/01/17 04:46:32;;;;;;;34.82;19.93;;;1.40;99.90;;;5.01;92.82;101432.77;1700888;74;24365;-76
2021/01/17 04:48:53;;;;;;;30.23;16.98;;;1.30;99.90;;;5.03;93.82;101433.72;1714361;73;25136;-75
2021/01/17 04:51:14;;;;;;;25.78;14.65;;;1.00;99.90;;;4.87;92.78;101423.99;1707784;74;24909;-77
2021/01/17 04:53:35;;;;;;;31.09;18.74;;;1.30;99.90;;;4.83;92.83;101430.71;1697533;74;24547;-76
2021/01/17 04:55:55;;;;;;;29.35;17.23;;;1.20;99.90;;;5.03;94.56;101436.70;1695517;74;24514;-76
2021/01/17 04:58:33;;;;;;;18.80;10.64;;;1.40;99.90;;;4.93;93.56;101431.98;1695867;74;24767;-78
2021/01/17 05:01:06;;;;;;;22.80;13.10;;;1.20;99.90;;;4.83;92.99;101434.58;1697641;74;25015;-80
2021/01/17 05:03:33;;;;;;;26.62;16.54;;;1.20;99.90;;;4.81;93.25;101429.76;1707810;74;24545;-77
2021/01/17 05:06:04;;;;;;;27.40;16.10;;;1.10;99.90;;;5.01;94.03;101426.31;1701121;74;24443;-76
2021/01/17 05:11:39;;;;;;;27.84;16.68;;;1.30;99.90;;;5.93;92.08;101424.91;1808378;70;25285;-76
2021/01/17 05:14:02;;;;;;;25.53;15.28;;;1.30;99.90;;;5.28;93.46;101424.87;1772050;71;24573;-75
2021/01/17 05:16:22;;;;;;;31.45;18.92;;;1.10;99.90;;;5.12;93.31;101419.03;1775913;71;24433;-76
2021/01/17 05:18:46;;;;;;;31.42;18.08;;;1.30;99.90;;;5.18;94.81;101420.57;1776312;70;25044;-75
2021/01/17 05:21:05;;;;;;;28.65;15.96;;;1.30;99.90;;;5.22;95.11;101423.73;1772769;71;24489;-75
2021/01/17 05:23:27;;;;;;;30.97;18.70;;;1.30;99.90;;;5.01;93.62;101425.45;1770464;71;24634;-74
2021/01/17 05:25:46;;;;;;;27.40;15.24;;;1.40;99.90;;;5.19;95.51;101421.03;1768270;71;24499;-75
2021/01/17 05:28:03;;;;;;;31.30;19.06;;;1.40;99.90;;;5.07;93.97;101416.27;1767328;71;24916;-74
2021/01/17 05:30:22;;;;;;;33.16;19.37;;;1.40;99.90;;;5.25;95.11;101422.16;1773143;71;24398;-77
2021/01/17 05:32:38;;;;;;;33.82;18.98;;;1.40;99.90;;;5.11;94.61;101424.59;1779168;71;24495;-76
2021/01/17 05:34:58;;;;;;;34.06;18.70;;;1.40;99.90;;;5.19;95.02;101421.92;1767967;72;24992;-75
2021/01/17 05:37:16;;;;;;;33.60;19.77;;;1.40;99.90;;;5.35;94.77;101427.30;1771355;71;24486;-75
2021/01/17 05:39:34;;;;;;;29.03;17.29;;;1.40;99.90;;;5.21;95.40;101420.69;1763390;71;24477;-74
2021/01/17 05:41:53;;;;;;;27.64;16.10;;;1.40;99.90;;;5.01;93.95;101421.14;1764741;71;24505;-77
2021/01/17 05:44:11;;;;;;;28.53;16.31;;;1.60;99.90;;;5.07;93.69;101419.25;1767445;72;25022;-75
2021/01/17 05:46:29;;;;;;;30.45;18.55;;;1.30;99.90;;;4.99;93.93;101423.20;1772275;71;25838;-75
2021/01/17 05:48:46;;;;;;;22.19;13.32;;;1.40;99.90;;;5.24;94.08;101420.81;1779090;71;24855;-76
2021/01/17 05:51:02;;;;;;;30.70;17.67;;;1.40;99.90;;;5.01;93.64;101416.42;1727926;73;24416;-75
2021/01/17 05:53:26;;;;;;;30.36;17.30;;;1.50;99.90;;;5.10;94.21;101421.95;1767063;71;24862;-74
2021/01/17 05:55:44;;;;;;;29.51;16.34;;;1.50;99.90;;;5.11;94.28;101424.59;1769015;71;24801;-74
2021/01/17 05:58:25;;;;;;;34.78;19.69;;;1.40;99.90;;;5.20;94.14;101430.56;1761556;70;24538;-75
2021/01/17 06:00:41;;;;;;;24.02;12.52;;;1.50;99.90;;;5.19;96.04;101426.19;1766170;71;24500;-78
2021/01/17 06:03:03;;;;;;;20.80;12.70;;;1.50;99.90;;;5.05;94.20;101424.34;1773906;71;24518;-78
2021/01/17 06:05:23;;;;;;;33.28;17.78;;;1.50;99.90;;;5.07;94.19;101421.43;1771427;71;24433;-76
2021/01/17 06:07:46;;;;;;;30.87;18.10;;;1.50;99.90;;;5.37;94.80;101427.84;1770342;71;24507;-76
2021/01/17 06:10:06;;;;;;;27.57;17.41;;;1.50;99.90;;;5.38;94.49;101435.16;1773989;71;24847;-73
2021/01/17 06:12:31;;;;;;;31.86;17.92;;;1.50;99.90;;;5.37;94.69;101428.25;1781683;71;24526;-74
2021/01/17 06:14:49;;;;;;;34.04;17.46;;;1.50;99.90;;;5.31;94.55;101426.28;1770118;70;24472;-74
2021/01/17 06:17:08;;;;;;;28.29;16.41;;;1.50;99.90;;;5.43;94.29;101437.13;1731067;73;24538;-77
2021/01/17 06:19:36;;;;;;;24.42;13.44;;;1.50;99.90;;;5.32;93.64;101440.08;1762599;71;24590;-75
2021/01/17 06:21:53;;;;;;;27.39;15.85;;;1.50;99.90;;;5.14;93.49;101436.77;1780114;70;25036;-75
2021/01/17 06:24:12;;;;;;;32.87;18.22;;;1.50;99.90;;;5.32;94.46;101445.25;1772492;71;24534;-74
2021/01/17 06:26:33;;;;;;;25.91;14.85;;;1.50;99.90;;;5.45;95.01;101445.83;1763540;71;24591;-76
2021/01/17 06:28:51;;;;;;;27.34;16.39;;;1.50;99.90;;;5.34;93.86;101451.36;1762574;72;24532;-73
2021/01/17 06:31:11;;;;;;;27.89;16.20;;;1.60;99.90;;;5.35;93.86;101451.42;1774750;71;24538;-78
2021/01/17 06:33:29;;;;;;;30.07;16.80;;;1.80;99.90;;;5.43;94.15;101460.77;1771226;71;24515;-74
2021/01/17 06:35:45;;;;;;;28.47;17.05;;;2.10;99.90;;;5.70;95.54;101460.19;1773027;71;24468;-73
2021/01/17 06:38:17;;;;;;;26.58;16.00;;;1.70;99.90;;;5.52;95.28;101467.59;1774489;71;25442;-73
2021/01/17 06:40:36;;;;;;;26.29;15.31;;;1.60;99.90;;;5.40;94.14;101466.70;1765754;71;24591;-74
2021/01/17 06:42:59;;;;;;;27.80;16.09;;;1.70;99.90;;;5.48;93.99;101470.48;1774699;71;24509;-74
2021/01/17 06:45:21;;;;;;;27.62;16.18;;;1.70;99.90;;;5.58;94.29;101466.14;1765741;71;24605;-77
2021/01/17 06:47:46;;;;;;;24.62;14.76;;;1.70;99.90;;;5.54;93.40;101472.02;1770053;71;24422;-74
2021/01/17 06:50:02;;;;;;;27.96;17.09;;;1.60;99.90;;;5.51;93.31;101473.19;1765452;71;25043;-74
2021/01/17 06:52:19;;;;;;;29.54;16.92;;;1.80;99.90;;;5.75;94.83;101470.27;1771712;71;24504;-76
2021/01/17 06:54:40;;;;;;;28.24;16.78;;;1.70;99.90;;;5.74;94.39;101468.91;1771808;71;24926;-75
2021/01/17 06:57:02;;;;;;;28.67;17.03;;;1.80;99.90;;;5.73;94.21;101469.34;1766175;71;24881;-75
2021/01/17 06:59:42;;;;;;;29.94;17.16;;;1.60;99.90;;;5.66;93.95;101475.47;1771295;71;24607;-75
2021/01/17 07:05:45;;;;;;;32.83;17.10;;;1.70;99.90;;;6.62;92.33;101484.45;1737368;72;25355;-75
2021/01/17 07:08:53;;;;;;;30.92;17.33;;;;;;;5.78;93.17;101479.46;1697229;75;24760;-74
2021/01/17 07:14:10;;;;;;;34.04;18.55;;;2.00;99.90;;;6.68;91.46;101486.37;1737210;72;25361;-76
2021/01/17 07:16:35;;;;;;;35.80;19.36;;;1.70;99.90;;;5.88;94.11;101489.35;1715781;73;24539;-75
2021/01/17 07:18:56;;;;;;;35.96;19.77;;;1.60;99.90;;;5.95;93.96;101495.64;1718549;73;24924;-75
2021/01/17 07:21:18;;;;;;;40.43;19.65;;;1.80;99.90;;;5.97;93.69;101491.42;1714467;73;24500;-76
2021/01/17 07:23:38;;;;;;;40.90;20.73;;;1.70;99.90;;;5.97;93.20;101495.30;1722455;73;24476;-76
2021/01/17 07:26:02;;;;;;;40.49;19.14;;;1.60;99.90;;;5.99;94.79;101495.82;1713964;73;25126;-75
2021/01/17 07:28:19;;;;;;;37.57;17.15;;;;;;;5.99;93.77;101503.58;1722426;73;24579;-76
2021/01/17 07:30:52;;;;;;;41.54;19.49;;;1.80;99.90;;;5.95;92.92;101512.45;1719389;73;24613;-76
2021/01/17 07:33:11;;;;;;;31.73;16.05;;;1.70;99.90;;;5.81;93.02;101508.00;1723945;73;24484;-76
2021/01/17 07:35:35;;;;;;;44.24;19.70;;;1.80;99.90;;;5.78;92.93;101516.03;1715778;73;25126;-74
2021/01/17 07:37:55;;;;;;;42.09;20.51;;;1.60;99.90;;;5.93;93.32;101512.78;1714836;73;24497;-76
2021/01/17 07:40:17;;;;;;;44.55;20.44;;;2.00;99.90;;;5.87;94.21;101524.18;1720802;73;24794;-76
2021/01/17 07:42:50;;;;;;;44.41;21.73;;;1.90;99.90;;;6.07;95.49;101520.67;1724856;73;25111;-76
2021/01/17 07:47:58;;;;;;;42.24;21.20;;;2.00;99.90;;;6.86;92.09;101537.08;1732761;72;25524;-79
2021/01/17 07:50:17;;;;;;;44.77;21.55;;;1.90;99.90;;;6.30;93.54;101537.08;1695178;74;24632;-76
2021/01/17 07:52:38;;;;;;;50.97;22.27;;;2.00;99.90;;;6.33;93.09;101541.97;1691180;75;24477;-76
2021/01/17 07:54:58;;;;;;;45.44;21.36;;;2.00;99.90;;;6.19;93.24;101541.85;1689071;75;24914;-77
2021/01/17 07:57:19;;;;;;;48.38;22.46;;;2.00;99.90;;;6.17;92.89;101538.31;1695895;73;24417;-77
2021/01/17 07:59:37;;;;;;;48.69;23.22;;;2.00;99.90;;;6.25;92.70;101539.90;1690505;75;24448;-75
2021/01/17 08:01:56;;;;;;;50.25;22.88;;;2.10;99.90;;;6.44;92.75;101540.67;1688769;75;24910;-77
2021/01/17 08:04:32;;;;;;;59.96;25.36;;;2.10;99.90;;;6.65;94.31;101543.19;1698190;75;24532;-78
2021/01/17 08:06:51;;;;;;;56.42;24.27;;;;;;;6.52;94.23;101541.84;1692309;75;24577;-76
2021/01/17 08:09:09;;;;;;;59.53;24.72;;;2.20;99.90;;;6.69;94.67;101541.16;1691141;75;24920;-77
2021/01/17 08:11:47;;;;;;;61.29;26.21;;;2.30;99.90;;;6.52;93.65;101547.42;1693198;75;24432;-77
2021/01/17 08:14:18;;;;;;;61.89;25.89;;;2.30;99.90;;;6.49;95.21;101550.79;1697907;75;25117;-78
2021/01/17 08:16:35;;;;;;;64.38;26.80;;;2.30;99.90;;;6.47;94.12;101551.53;1696246;75;24522;-78
2021/01/17 08:18:54;;;;;;;67.95;26.73;;;2.30;99.90;;;6.96;92.29;101553.42;1694728;75;24487;-76
2021/01/17 08:21:27;;;;;;;69.72;29.22;;;2.30;99.90;;;6.88;92.95;101557.44;1713692;75;24443;-77
2021/01/17 08:24:22;;;;;;;62.77;26.96;;;2.40;99.90;;;6.68;93.99;101556.23;1700029;75;24528;-78
2021/01/17 08:29:30;;;;;;;70.52;28.22;;;2.50;99.90;;;7.57;93.46;101559.05;1743039;72;25270;-77
2021/01/17 08:31:46;;;;;;;72.25;28.88;;;2.70;99.90;;;7.00;95.00;101574.70;1721031;73;24943;-75
2021/01/17 08:37:11;;;;;;;63.81;27.11;;;2.50;99.90;;;7.63;93.72;101567.88;1724279;72;25401;-77
2021/01/17 08:39:55;;;;;;;74.15;28.70;;;2.90;99.90;;;7.02;95.52;101584.70;1687279;75;24504;-77
2021/01/17 08:42:35;;;;;;;72.13;29.60;;;2.20;99.90;;;6.94;95.47;101578.37;1714056;75;24511;-76
2021/01/17 08:44:54;;;;;;;71.91;29.53;;;2.70;99.90;;;6.85;95.57;101585.80;1701690;74;25006;-77
2021/01/17 08:47:24;;;;;;;73.33;29.80;;;2.90;99.90;;;6.83;96.33;101584.85;1711206;75;24540;-78
2021/01/17 08:49:40;;;;;;;68.11;29.33;;;2.70;99.90;;;6.84;96.86;101586.64;1700053;75;24527;-75
2021/01/17 08:52:04;;;;;;;73.48;30.66;;;3.00;99.90;;;6.94;97.21;101591.75;1712770;74;24485;-76
2021/01/17 08:54:28;;;;;;;70.01;29.77;;;3.20;99.90;;;6.96;97.55;101590.07;1711508;75;24510;-77
2021/01/17 08:56:44;;;;;;;58.99;27.41;;;2.90;99.90;;;7.06;97.08;101594.37;1703584;75;25036;-77
2021/01/17 08:59:04;;;;;;;72.89;29.63;;;3.20;99.90;;;7.10;96.38;101600.11;1707135;75;24508;-74
2021/01/17 09:01:22;;;;;;;73.81;29.37;;;3.00;99.90;;;7.15;97.34;101602.45;1703150;75;24564;-74
2021/01/17 09:03:51;;;;;;;72.71;28.38;;;3.10;99.90;;;7.20;97.59;101603.52;1702035;75;24469;-75
2021/01/17 09:06:23;;;;;;;65.93;28.74;;;3.10;99.90;;;7.19;97.00;101600.88;1697032;75;24891;-75
2021/01/17 09:08:43;;;;;;;65.14;28.67;;;3.10;99.90;;;7.27;96.72;101604.62;1702279;75;24472;-75
2021/01/17 09:11:00;;;;;;;66.84;27.94;;;3.10;99.90;;;7.23;97.00;101607.51;1701002;75;24505;-77
2021/01/17 09:13:26;;;;;;;60.11;28.22;;;3.20;99.90;;;7.22;98.02;101616.52;1706271;75;24984;-75
2021/01/17 09:15:49;;;;;;;64.33;27.94;;;3.50;99.90;;;7.30;97.87;101619.83;1708827;75;24630;-76
2021/01/17 09:18:05;;;;;;;66.94;28.10;;;3.30;99.90;;;7.33;98.27;101627.70;1699300;75;25076;-74
2021/01/17 09:20:27;;;;;;;60.64;27.92;;;3.60;99.90;;;7.28;98.33;101627.98;1712466;75;24481;-76
2021/01/17 09:22:50;;;;;;;64.06;28.16;;;3.70;99.90;;;7.37;97.50;101634.78;1703690;75;24485;-76
2021/01/17 09:25:11;;;;;;;65.75;29.14;;;3.60;99.90;;;7.42;98.56;101642.31;1705527;75;24533;-79
2021/01/17 09:27:31;;;;;;;66.86;28.80;;;3.80;99.90;;;7.53;98.22;101646.56;1700781;75;24467;-77
2021/01/17 09:29:47;;;;;;;63.37;28.50;;;3.70;99.90;;;7.63;98.43;101655.14;1711176;75;24490;-78
2021/01/17 09:32:14;;;;;;;64.10;28.32;;;3.80;99.90;;;7.83;98.40;101646.74;1712512;75;24587;-78
2021/01/17 09:34:37;;;;;;;66.86;28.18;;;3.60;99.90;;;7.79;98.21;101647.48;1701183;75;25123;-78
2021/01/17 09:36:53;;;;;;;67.14;27.39;;;3.90;99.90;;;7.92;98.18;101647.94;1696654;74;24466;-80
2021/01/17 09:39:11;;;;;;;68.82;28.33;;;3.90;99.90;;;8.10;98.21;101648.56;1690410;75;24500;-77
2021/01/17 09:41:45;;;;;;;;;;;;;;;;;;;;;
2021/01/17 09:43:57;;;;;;;68.92;29.13;;;4.20;99.90;;;8.14;97.22;101657.34;1684698;75;24567;-78
2021/01/17 09:46:12;;;;;;;68.69;29.90;;;4.40;99.90;;;8.17;97.44;101662.18;1693678;75;24574;-78
2021/01/17 09:48:31;;;;;;;59.35;27.76;;;4.30;99.90;;;8.11;97.78;101665.88;1690783;75;24935;-77
2021/01/17 09:50:53;;;;;;;57.34;26.35;;;4.40;99.90;;;8.30;98.07;101676.50;1690024;75;25100;-75
2021/01/17 09:53:10;;;;;;;57.73;27.30;;;4.60;99.90;;;8.41;97.83;101674.70;1695455;75;24590;-76
2021/01/17 09:55:27;;;;;;;63.14;27.66;;;4.70;99.90;;;8.17;97.36;101679.48;1691802;75;25222;-75
2021/01/17 09:57:44;;;;;;;57.07;26.22;;;4.60;99.90;;;8.31;97.52;101686.04;1697117;75;24607;-78
2021/01/17 10:00:01;;;;;;;59.38;26.46;;;4.80;99.90;;;8.46;98.62;101693.02;1699443;75;24510;-77
2021/01/17 10:02:22;;;;;;;61.00;26.32;;;;;;;8.61;98.11;101690.92;1689805;75;25126;-76
2021/01/17 10:04:41;;;;;;;57.58;27.15;;;5.20;99.90;;;8.80;98.29;101695.42;1694478;75;24456;-77
2021/01/17 10:07:04;;;;;;;54.73;26.25;;;5.20;99.90;;;8.75;98.20;101700.92;1689199;75;25139;-76
2021/01/17 10:09:21;;;;;;;51.88;26.95;;;;;;;8.88;98.29;101701.73;1694574;75;24583;-78